Sisterdale, Texas
Current Conditions -  °F | °C
As of 7:15 PM on Saturday 25 Oct 2014 (Local Time) from K5C1 Reporting Station
Clear Clear  
Wind Chill: 73°   Ceiling: Unl
Heat Index: 73°   Visibility: 10mi
Dew Point: 52°   Wind: 0mph
Humidity: 47%   Direction: NA
Pressure: 30.12"   Gusts: NA
Location:  29.8239°N, 98.758°W
Report Text: K5C1 260015Z AUTO 00000KT 10SM CLR 23/11 A3012 RMK AO1
Loading
Personal Weather Stations






























Interactive Weather Map
Tropical Storm Tracking
New forecast layout! Learn more

10-Day Weather Forecast

Advertisements
Track Severe Weather on mobile